createdAt,value
2023-01-09T00:01:12.629Z,80.58
2023-01-09T00:03:39.310Z,80.66
2023-01-09T00:06:06.178Z,80.50
2023-01-09T00:08:32.955Z,80.50
2023-01-09T00:10:59.657Z,80.40
2023-01-09T00:13:26.500Z,80.22
2023-01-09T00:15:53.649Z,80.49
2023-01-09T00:18:20.329Z,80.33
2023-01-09T00:20:47.089Z,80.35
2023-01-09T00:23:13.807Z,80.30
2023-01-09T00:25:42.481Z,80.17
2023-01-09T00:28:09.292Z,80.20
2023-01-09T00:30:36.236Z,80.19
2023-01-09T00:33:03.057Z,80.28
2023-01-09T00:35:29.797Z,80.11
2023-01-09T00:37:56.663Z,80.14
2023-01-09T00:40:23.343Z,80.08
2023-01-09T00:42:55.037Z,80.06
2023-01-09T00:45:29.433Z,79.94
2023-01-09T00:48:03.856Z,79.78
2023-01-09T00:50:33.564Z,79.80
2023-01-09T00:53:07.741Z,79.69
2023-01-09T00:55:36.763Z,79.37
2023-01-09T00:58:03.612Z,79.41
2023-01-09T01:00:30.358Z,79.31
2023-01-09T01:02:57.319Z,79.22
2023-01-09T01:05:42.757Z,78.98
2023-01-09T01:08:14.743Z,79.00
2023-01-09T01:10:41.864Z,78.93
2023-01-09T01:13:08.852Z,78.57
2023-01-09T01:15:38.389Z,78.55
2023-01-09T01:18:05.248Z,78.42
2023-01-09T01:20:32.015Z,78.57
2023-01-09T01:22:58.803Z,78.40
2023-01-09T01:25:25.595Z,78.12
2023-01-09T01:27:52.286Z,78.36
2023-01-09T01:30:20.105Z,78.36
2023-01-09T01:32:46.827Z,78.29
2023-01-09T01:35:13.853Z,78.24
2023-01-09T01:37:41.262Z,78.43
2023-01-09T01:40:09.404Z,78.40
2023-01-09T01:42:36.354Z,78.54
2023-01-09T01:45:03.182Z,78.58
2023-01-09T01:48:02.717Z,78.59
2023-01-09T01:50:46.666Z,78.72
2023-01-09T01:53:15.664Z,78.60
2023-01-09T01:56:13.469Z,79.08
2023-01-09T01:59:09.369Z,79.07
2023-01-09T02:01:41.424Z,79.38
2023-01-09T02:04:08.506Z,79.51
2023-01-09T02:06:36.107Z,79.73
2023-01-09T02:09:05.923Z,79.77
2023-01-09T02:11:33.428Z,80.23
2023-01-09T02:14:01.741Z,80.37
2023-01-09T02:16:49.765Z,80.78
2023-01-09T02:19:35.050Z,81.03
2023-01-09T02:22:35.573Z,81.88
2023-01-09T02:25:20.573Z,81.76
2023-01-09T02:28:10.634Z,82.00
2023-01-09T02:30:49.581Z,82.36
2023-01-09T02:33:50.277Z,82.58
2023-01-09T02:36:38.839Z,82.55
2023-01-09T02:39:24.402Z,82.98
2023-01-09T02:42:19.435Z,82.97
2023-01-09T02:44:46.329Z,83.25
2023-01-09T02:47:15.704Z,83.24
2023-01-09T02:50:03.268Z,83.35
2023-01-09T02:52:53.096Z,83.45
2023-01-09T02:55:38.195Z,83.76
2023-01-09T02:58:29.095Z,83.86
2023-01-09T03:01:25.299Z,84.00
2023-01-09T03:04:16.024Z,83.90
2023-01-09T03:06:43.025Z,84.02
2023-01-09T03:09:17.584Z,84.35
2023-01-09T03:11:49.929Z,84.48
2023-01-09T03:14:20.523Z,84.45
2023-01-09T03:16:50.013Z,84.49
2023-01-09T03:19:21.572Z,84.51
2023-01-09T03:21:49.774Z,84.75
2023-01-09T03:24:16.559Z,84.80
2023-01-09T03:26:43.905Z,84.78
2023-01-09T03:29:10.699Z,84.88
2023-01-09T03:31:37.505Z,85.01
2023-01-09T03:34:04.313Z,85.06
2023-01-09T03:36:31.021Z,85.27
2023-01-09T03:38:57.663Z,85.22
2023-01-09T03:41:24.784Z,85.24
2023-01-09T03:43:51.503Z,85.37
2023-01-09T03:46:18.197Z,85.47
2023-01-09T03:48:44.934Z,85.55
2023-01-09T03:51:11.654Z,85.33
2023-01-09T03:53:38.403Z,85.31
2023-01-09T03:56:05.341Z,85.34
2023-01-09T03:58:32.145Z,85.28
2023-01-09T04:01:04.829Z,85.23
2023-01-09T04:03:32.035Z,85.24
2023-01-09T04:05:58.804Z,85.12
2023-01-09T04:08:25.509Z,85.09
2023-01-09T04:10:52.599Z,85.01
2023-01-09T04:13:19.545Z,85.13
2023-01-09T04:15:46.186Z,85.06
2023-01-09T04:18:13.499Z,85.23
2023-01-09T04:20:42.261Z,85.03
2023-01-09T04:23:09.135Z,85.12
2023-01-09T04:25:35.989Z,85.47
2023-01-09T04:28:02.698Z,85.23
2023-01-09T04:30:29.352Z,85.35
2023-01-09T04:32:56.298Z,85.34
2023-01-09T04:35:23.888Z,85.39
2023-01-09T04:37:50.549Z,85.40
2023-01-09T04:40:17.729Z,85.49
2023-01-09T04:42:44.444Z,85.58
2023-01-09T04:45:11.911Z,85.59
2023-01-09T04:47:38.891Z,85.59
2023-01-09T04:50:05.879Z,85.68
2023-01-09T04:52:33.397Z,85.79
2023-01-09T04:55:00.374Z,85.88
2023-01-09T04:57:27.160Z,85.86
2023-01-09T04:59:54.415Z,85.62
2023-01-09T05:02:21.329Z,85.91
2023-01-09T05:04:48.225Z,85.83
2023-01-09T05:07:15.126Z,85.69
2023-01-09T05:09:42.165Z,85.76
2023-01-09T05:12:08.966Z,85.80
2023-01-09T05:14:35.718Z,85.79
2023-01-09T05:17:02.647Z,85.75
2023-01-09T05:19:29.432Z,85.68
2023-01-09T05:21:56.104Z,85.76
2023-01-09T05:24:22.808Z,85.87
2023-01-09T05:26:49.568Z,85.76
2023-01-09T05:29:16.252Z,85.91
2023-01-09T05:31:42.998Z,85.82
2023-01-09T05:34:09.825Z,85.88
2023-01-09T05:36:36.592Z,86.00
2023-01-09T05:39:03.940Z,85.99
2023-01-09T05:41:30.694Z,86.04
2023-01-09T05:43:57.625Z,86.04
2023-01-09T05:46:24.419Z,86.05
2023-01-09T05:48:51.207Z,86.05
2023-01-09T05:51:18.200Z,85.99
2023-01-09T05:53:44.963Z,85.93
2023-01-09T05:56:12.038Z,86.08
2023-01-09T05:58:39.165Z,86.00
2023-01-09T06:01:06.525Z,86.01
2023-01-09T06:03:33.564Z,86.07
2023-01-09T06:06:00.218Z,86.09
2023-01-09T06:08:27.038Z,85.98
2023-01-09T06:10:53.724Z,85.78
2023-01-09T06:13:20.582Z,85.66
2023-01-09T06:15:48.702Z,85.76
2023-01-09T06:18:16.059Z,85.63
2023-01-09T06:20:45.252Z,85.62
2023-01-09T06:23:13.464Z,85.44
2023-01-09T06:25:40.773Z,85.47
2023-01-09T06:28:07.745Z,85.50
2023-01-09T06:30:34.737Z,85.40
2023-01-09T06:33:01.794Z,85.31
2023-01-09T06:35:28.937Z,85.42
2023-01-09T06:37:55.823Z,85.37
2023-01-09T06:40:22.705Z,85.19
2023-01-09T06:42:50.186Z,85.20
2023-01-09T06:45:17.052Z,85.11
2023-01-09T06:47:44.067Z,85.04
2023-01-09T06:50:11.524Z,85.10
2023-01-09T06:52:39.145Z,85.05
2023-01-09T06:55:06.635Z,84.92
2023-01-09T06:57:33.643Z,84.67
2023-01-09T07:00:00.358Z,84.80
2023-01-09T07:02:27.085Z,84.66
2023-01-09T07:04:53.948Z,84.57
2023-01-09T07:07:22.565Z,84.51
2023-01-09T07:09:49.743Z,84.62
2023-01-09T07:12:16.495Z,84.40
2023-01-09T07:14:43.348Z,84.48
2023-01-09T07:17:13.546Z,84.36
2023-01-09T07:19:40.364Z,84.24
2023-01-09T07:22:07.401Z,84.19
2023-01-09T07:24:34.197Z,84.05
2023-01-09T07:27:02.660Z,84.03
2023-01-09T07:29:29.727Z,83.91
2023-01-09T07:31:56.670Z,83.75
2023-01-09T07:34:23.437Z,83.59
2023-01-09T07:36:51.354Z,83.67
2023-01-09T07:39:18.360Z,83.55
2023-01-09T07:41:45.594Z,83.63
2023-01-09T07:44:12.807Z,83.36
2023-01-09T07:46:39.637Z,83.44
2023-01-09T07:49:06.970Z,83.35
2023-01-09T07:51:33.810Z,83.23
2023-01-09T07:54:00.585Z,83.16
2023-01-09T07:56:27.436Z,83.12
2023-01-09T07:58:54.217Z,83.03
2023-01-09T08:01:21.103Z,82.91
2023-01-09T08:03:48.077Z,83.02
2023-01-09T08:06:14.934Z,82.70
2023-01-09T08:08:41.726Z,82.75
2023-01-09T08:11:08.537Z,82.73
2023-01-09T08:13:35.295Z,82.62
2023-01-09T08:16:02.143Z,82.48
2023-01-09T08:18:28.972Z,82.46
2023-01-09T08:20:55.668Z,82.50
2023-01-09T08:23:22.375Z,82.43
2023-01-09T08:25:49.105Z,82.32
2023-01-09T08:28:15.899Z,82.28
2023-01-09T08:30:42.641Z,82.47
2023-01-09T08:33:09.651Z,82.06
2023-01-09T08:35:37.271Z,82.10
2023-01-09T08:38:04.561Z,81.96
2023-01-09T08:40:31.569Z,81.78
2023-01-09T08:43:17.215Z,81.59
2023-01-09T08:46:02.845Z,81.58
2023-01-09T08:48:29.602Z,81.48
2023-01-09T08:50:56.336Z,81.40
2023-01-09T08:53:23.239Z,81.19
2023-01-09T08:55:49.968Z,81.17
2023-01-09T08:58:16.805Z,80.93
2023-01-09T09:00:43.523Z,80.88
2023-01-09T09:03:11.974Z,80.67
2023-01-09T09:05:38.759Z,80.71
2023-01-09T09:08:06.331Z,80.54
2023-01-09T09:10:33.199Z,80.58
2023-01-09T09:13:00.124Z,80.33
2023-01-09T09:15:29.952Z,80.27
2023-01-09T09:18:02.016Z,80.23
2023-01-09T09:20:31.789Z,80.19
2023-01-09T09:22:58.534Z,80.06
2023-01-09T09:25:25.726Z,79.83
2023-01-09T09:27:52.576Z,80.01
2023-01-09T09:30:20.619Z,79.92
2023-01-09T09:32:47.686Z,79.99
2023-01-09T09:35:14.845Z,79.79
2023-01-09T09:37:42.071Z,79.72
2023-01-09T09:40:19.863Z,79.60
2023-01-09T09:43:49.663Z,79.61
2023-01-09T09:46:28.377Z,79.61
2023-01-09T09:49:02.088Z,79.55
2023-01-09T09:51:50.432Z,79.55
2023-01-09T09:54:24.915Z,79.49
2023-01-09T09:56:54.763Z,79.51
2023-01-09T09:59:28.292Z,79.41
2023-01-09T10:02:02.809Z,79.51
2023-01-09T10:04:32.756Z,79.42
2023-01-09T10:07:10.002Z,79.44
2023-01-09T10:09:49.983Z,79.37
2023-01-09T10:12:39.639Z,79.34
2023-01-09T10:15:46.375Z,79.54
2023-01-09T10:18:13.193Z,79.29
2023-01-09T10:20:44.787Z,79.27
2023-01-09T10:23:52.822Z,79.09
2023-01-09T10:26:28.053Z,79.31
2023-01-09T10:28:55.023Z,78.88
2023-01-09T10:31:49.310Z,79.02
2023-01-09T10:34:39.045Z,78.68
2023-01-09T10:37:15.634Z,78.83
2023-01-09T10:39:50.412Z,78.74
2023-01-09T10:42:33.490Z,78.64
2023-01-09T10:45:17.890Z,78.71
2023-01-09T10:47:45.807Z,78.42
2023-01-09T10:50:22.992Z,78.41
2023-01-09T10:52:52.374Z,78.25
2023-01-09T10:55:31.097Z,78.00
2023-01-09T10:58:02.085Z,77.90
2023-01-09T11:00:29.004Z,77.76
2023-01-09T11:02:56.361Z,77.61
2023-01-09T11:05:31.164Z,77.58
2023-01-09T11:08:06.851Z,77.36
2023-01-09T11:10:54.932Z,77.37
2023-01-09T11:13:26.136Z,77.14
2023-01-09T11:16:20.918Z,77.18
2023-01-09T11:19:00.238Z,77.06
2023-01-09T11:21:32.666Z,77.01
2023-01-09T11:24:19.456Z,76.92
2023-01-09T11:26:47.568Z,76.76
2023-01-09T11:29:15.462Z,76.72
2023-01-09T11:31:50.522Z,76.52
2023-01-09T11:34:19.610Z,76.27
2023-01-09T11:36:46.851Z,76.24
2023-01-09T11:39:25.379Z,76.08
2023-01-09T11:42:04.833Z,76.23
2023-01-09T11:44:32.618Z,76.00
2023-01-09T11:47:00.115Z,75.91
2023-01-09T11:49:29.091Z,75.75
2023-01-09T11:52:20.565Z,75.76
2023-01-09T11:55:12.175Z,75.54
2023-01-09T11:57:39.036Z,75.51
2023-01-09T12:00:27.335Z,75.43
2023-01-09T12:03:28.064Z,75.23
2023-01-09T12:06:24.257Z,75.06
2023-01-09T12:09:04.200Z,75.21
2023-01-09T12:11:50.297Z,75.04
2023-01-09T12:14:27.445Z,74.92
2023-01-09T12:17:17.674Z,74.99
2023-01-09T12:20:06.553Z,74.71
2023-01-09T12:22:51.187Z,74.67
2023-01-09T12:25:30.640Z,74.74
2023-01-09T12:28:28.053Z,74.63
2023-01-09T12:30:57.613Z,74.51
2023-01-09T12:33:35.338Z,74.32
2023-01-09T12:36:09.699Z,74.11
2023-01-09T12:38:54.166Z,74.02
2023-01-09T12:41:37.740Z,73.79
2023-01-09T12:44:50.041Z,73.63
2023-01-09T12:47:45.591Z,73.43
2023-01-09T12:50:30.703Z,72.90
2023-01-09T12:53:23.838Z,72.43
2023-01-09T12:56:20.443Z,72.21
2023-01-09T12:59:02.688Z,72.01
2023-01-09T13:01:52.857Z,72.07
2023-01-09T13:04:28.360Z,71.83
2023-01-09T13:07:01.304Z,71.51
2023-01-09T13:09:40.043Z,71.23
2023-01-09T13:12:15.591Z,71.04
2023-01-09T13:14:53.833Z,70.83
2023-01-09T13:17:42.287Z,70.67
2023-01-09T13:20:36.502Z,70.03
2023-01-09T13:23:05.557Z,70.06
2023-01-09T13:25:51.870Z,69.68
2023-01-09T13:28:47.241Z,69.34
2023-01-09T13:31:21.672Z,69.01
2023-01-09T13:34:00.457Z,68.73
2023-01-09T13:36:46.259Z,68.74
2023-01-09T13:39:21.876Z,68.60
2023-01-09T13:42:12.874Z,68.62
2023-01-09T13:44:42.728Z,68.49
2023-01-09T13:47:20.612Z,68.60
2023-01-09T13:49:47.218Z,68.38
2023-01-09T13:52:26.348Z,68.25
2023-01-09T13:54:55.695Z,68.08
2023-01-09T13:58:05.797Z,68.22
2023-01-09T14:00:35.228Z,67.92
2023-01-09T14:03:14.296Z,67.39
2023-01-09T14:05:40.907Z,67.22
2023-01-09T14:08:17.329Z,66.90
2023-01-09T14:10:43.975Z,66.72
2023-01-09T14:13:18.610Z,66.46
2023-01-09T14:15:47.157Z,66.17
2023-01-09T14:18:22.959Z,65.97
2023-01-09T14:21:00.459Z,65.61
2023-01-09T14:23:50.525Z,65.59
2023-01-09T14:26:25.006Z,65.18
2023-01-09T14:28:52.166Z,65.03
2023-01-09T14:31:32.635Z,64.84
2023-01-09T14:34:39.348Z,64.71
2023-01-09T14:37:12.379Z,64.66
2023-01-09T14:39:43.318Z,64.46
2023-01-09T14:42:15.958Z,64.27
2023-01-09T14:45:06.657Z,64.12
2023-01-09T14:48:04.473Z,63.67
2023-01-09T14:50:39.392Z,63.74
2023-01-09T14:53:11.347Z,63.48
2023-01-09T14:55:53.721Z,63.26
2023-01-09T14:58:21.896Z,63.28
2023-01-09T15:01:00.514Z,63.25
2023-01-09T15:03:33.466Z,63.27
2023-01-09T15:06:01.255Z,63.02
2023-01-09T15:08:29.411Z,63.06
2023-01-09T15:10:58.370Z,62.92
2023-01-09T15:13:46.931Z,63.12
2023-01-09T15:16:19.938Z,63.29
2023-01-09T15:18:48.665Z,63.13
2023-01-09T15:21:23.082Z,63.00
2023-01-09T15:23:49.958Z,63.24
2023-01-09T15:26:31.792Z,63.65
2023-01-09T15:29:13.407Z,63.61
2023-01-09T15:31:43.456Z,63.75
2023-01-09T15:34:18.073Z,63.91
2023-01-09T15:36:45.120Z,64.31
2023-01-09T15:39:19.723Z,64.36
2023-01-09T15:42:05.510Z,64.49
2023-01-09T15:44:36.552Z,64.54
2023-01-09T15:47:07.329Z,64.71
2023-01-09T15:49:34.974Z,64.81
2023-01-09T15:52:03.633Z,65.07
2023-01-09T15:54:32.502Z,65.38
2023-01-09T15:57:27.326Z,65.57
2023-01-09T15:59:54.992Z,65.82
2023-01-09T16:02:42.824Z,65.84
2023-01-09T16:05:17.367Z,66.31
2023-01-09T16:07:49.055Z,66.67
2023-01-09T16:10:41.951Z,66.85
2023-01-09T16:13:14.723Z,66.99
2023-01-09T16:15:44.880Z,67.32
2023-01-09T16:18:21.676Z,67.34
2023-01-09T16:20:49.431Z,67.83
2023-01-09T16:23:34.377Z,67.82
2023-01-09T16:26:13.268Z,68.15
2023-01-09T16:28:43.439Z,68.06
2023-01-09T16:31:16.408Z,68.28
2023-01-09T16:33:48.739Z,68.79
2023-01-09T16:36:17.102Z,68.96
2023-01-09T16:38:43.888Z,68.99
2023-01-09T16:41:34.339Z,69.25
2023-01-09T16:44:01.529Z,69.50
2023-01-09T16:46:28.828Z,69.68
2023-01-09T16:48:55.859Z,69.66
2023-01-09T16:51:23.178Z,69.96
2023-01-09T16:53:50.174Z,70.01
2023-01-09T16:56:28.001Z,70.21
2023-01-09T16:58:54.910Z,70.17
2023-01-09T17:01:24.720Z,70.50
2023-01-09T17:03:52.822Z,70.54
2023-01-09T17:06:24.757Z,70.73
2023-01-09T17:08:51.675Z,70.58
2023-01-09T17:11:24.478Z,70.81
2023-01-09T17:13:51.201Z,70.89
2023-01-09T17:16:18.540Z,70.99
2023-01-09T17:18:45.790Z,71.08
2023-01-09T17:21:29.042Z,71.26
2023-01-09T17:24:14.449Z,71.06
2023-01-09T17:27:02.104Z,71.17
2023-01-09T17:29:30.435Z,71.32
2023-01-09T17:35:39.170Z,71.28
2023-01-09T17:38:05.890Z,71.17
2023-01-09T17:40:32.605Z,71.15
2023-01-09T17:42:59.702Z,71.25
2023-01-09T17:45:28.059Z,71.25
2023-01-09T17:47:54.846Z,71.16
2023-01-09T17:50:22.166Z,71.03
2023-01-09T17:52:49.312Z,71.38
2023-01-09T17:55:16.131Z,71.12
2023-01-09T17:57:43.596Z,71.20
2023-01-09T18:00:42.850Z,71.35
2023-01-09T18:03:09.735Z,71.21
2023-01-09T18:05:37.132Z,71.33
2023-01-09T18:08:05.868Z,71.38
2023-01-09T18:10:32.831Z,71.45
2023-01-09T18:12:59.538Z,71.41
2023-01-09T18:15:26.351Z,71.45
2023-01-09T18:17:53.146Z,71.39
2023-01-09T18:20:19.935Z,71.29
2023-01-09T18:22:47.816Z,71.43
2023-01-09T18:25:14.865Z,71.47
2023-01-09T18:27:41.585Z,71.50
2023-01-09T18:30:09.015Z,71.62
2023-01-09T18:32:35.950Z,71.61
2023-01-09T18:35:04.338Z,71.58
2023-01-09T18:37:31.234Z,71.56
2023-01-09T18:39:57.988Z,71.54
2023-01-09T18:42:24.662Z,71.50
2023-01-09T18:44:51.523Z,71.78
2023-01-09T18:47:18.380Z,71.68
2023-01-09T18:49:45.029Z,71.75
2023-01-09T18:52:11.849Z,71.75
2023-01-09T18:54:38.659Z,71.84
2023-01-09T18:57:05.454Z,71.83
2023-01-09T18:59:32.355Z,71.98
2023-01-09T19:02:01.928Z,71.85
2023-01-09T19:04:30.135Z,72.09
2023-01-09T19:06:58.198Z,71.97
2023-01-09T19:09:25.014Z,72.20
2023-01-09T19:11:51.730Z,72.23
2023-01-09T19:14:18.725Z,72.50
2023-01-09T19:16:45.726Z,72.41
2023-01-09T19:19:14.792Z,72.37
2023-01-09T19:21:41.592Z,72.33
2023-01-09T19:24:08.465Z,72.53
2023-01-09T19:26:35.328Z,72.59
2023-01-09T19:29:03.463Z,72.59
2023-01-09T19:31:30.344Z,72.70
2023-01-09T19:33:58.054Z,72.79
2023-01-09T19:36:25.305Z,72.84
2023-01-09T19:38:59.302Z,72.73
2023-01-09T19:41:26.611Z,72.78
2023-01-09T19:43:53.342Z,72.82
2023-01-09T19:46:24.396Z,72.80
2023-01-09T19:48:52.720Z,72.67
2023-01-09T19:51:21.446Z,72.93
2023-01-09T19:56:28.593Z,73.09
2023-01-09T19:59:00.314Z,73.08
2023-01-09T20:01:32.607Z,72.90
2023-01-09T20:04:07.862Z,72.98
2023-01-09T20:06:35.080Z,73.11
2023-01-09T20:09:04.955Z,73.16
2023-01-09T20:11:33.321Z,73.11
2023-01-09T20:14:00.874Z,73.22
2023-01-09T20:16:30.836Z,73.30
2023-01-09T20:18:59.781Z,73.49
2023-01-09T20:21:27.600Z,73.42
2023-01-09T20:23:56.103Z,73.53
2023-01-09T20:26:23.885Z,73.68
2023-01-09T20:28:50.626Z,73.82
2023-01-09T20:31:19.729Z,73.93
2023-01-09T20:33:48.128Z,74.05
2023-01-09T20:36:15.722Z,74.14
2023-01-09T20:38:43.371Z,74.27
2023-01-09T20:41:23.024Z,74.38
2023-01-09T20:43:51.096Z,74.43
2023-01-09T20:46:18.150Z,74.44
2023-01-09T20:48:45.617Z,74.52
2023-01-09T20:51:13.554Z,74.59
2023-01-09T20:53:56.372Z,74.67
2023-01-09T20:56:24.904Z,74.88
2023-01-09T20:58:52.641Z,74.80
2023-01-09T21:01:21.055Z,74.95
2023-01-09T21:03:48.662Z,74.83
2023-01-09T21:06:17.510Z,74.79
2023-01-09T21:08:47.196Z,74.61
2023-01-09T21:11:15.346Z,74.88
2023-01-09T21:13:42.623Z,74.95
2023-01-09T21:16:12.363Z,75.01
2023-01-09T21:18:40.057Z,75.00
2023-01-09T21:21:09.707Z,74.85
2023-01-09T21:23:37.612Z,74.77
2023-01-09T21:26:13.590Z,74.92
2023-01-09T21:28:50.176Z,74.98
2023-01-09T21:31:20.465Z,74.94
2023-01-09T21:33:49.418Z,74.93
2023-01-09T21:36:16.450Z,74.96
2023-01-09T21:38:43.443Z,74.69
2023-01-09T21:41:29.145Z,74.81
2023-01-09T21:44:14.729Z,75.01
2023-01-09T21:46:56.142Z,74.76
2023-01-09T21:49:26.674Z,74.77
2023-01-09T21:51:54.602Z,74.93
2023-01-09T21:54:23.694Z,74.90
2023-01-09T21:56:51.754Z,74.87
2023-01-09T21:59:19.284Z,74.85
2023-01-09T22:01:49.424Z,74.88
2023-01-09T22:04:17.980Z,74.99
2023-01-09T22:06:45.127Z,74.76
2023-01-09T22:09:12.817Z,74.89
2023-01-09T22:11:39.898Z,74.69
2023-01-09T22:14:07.174Z,74.85
2023-01-09T22:16:34.464Z,74.68
2023-01-09T22:19:01.334Z,74.61
2023-01-09T22:21:28.146Z,74.73
2023-01-09T22:23:55.048Z,74.43
2023-01-09T22:26:21.905Z,74.59
2023-01-09T22:28:49.274Z,74.62
2023-01-09T22:31:18.495Z,74.57
2023-01-09T22:33:50.695Z,74.58
2023-01-09T22:36:17.920Z,74.58
2023-01-09T22:38:45.226Z,74.60
2023-01-09T22:41:12.209Z,74.41
2023-01-09T22:43:39.034Z,74.52
2023-01-09T22:46:11.347Z,74.63
2023-01-09T22:48:39.056Z,74.49
2023-01-09T22:51:10.005Z,74.57
2023-01-09T22:53:36.795Z,74.35
2023-01-09T22:56:05.852Z,74.34
2023-01-09T22:58:34.825Z,74.49
2023-01-09T23:01:01.644Z,74.49
2023-01-09T23:03:29.057Z,74.50
2023-01-09T23:06:03.206Z,74.65
2023-01-09T23:08:31.179Z,74.35
2023-01-09T23:10:58.859Z,74.38
2023-01-09T23:13:26.155Z,74.43
2023-01-09T23:15:53.789Z,74.41
2023-01-09T23:18:20.973Z,74.50
2023-01-09T23:20:52.965Z,74.47
2023-01-09T23:23:21.149Z,74.45
2023-01-09T23:25:49.884Z,74.51
2023-01-09T23:28:17.214Z,74.37
2023-01-09T23:30:47.145Z,74.55
2023-01-09T23:33:13.994Z,74.33
2023-01-09T23:35:40.905Z,74.39
2023-01-09T23:38:07.742Z,74.40
2023-01-09T23:40:39.205Z,74.33
2023-01-09T23:43:09.087Z,74.18
2023-01-09T23:45:41.729Z,74.34
2023-01-09T23:48:10.693Z,74.09
2023-01-09T23:50:37.416Z,74.17
2023-01-09T23:53:04.720Z,73.92
2023-01-09T23:55:31.902Z,73.95
2023-01-09T23:57:58.669Z,73.91
